NCAR-RAP Real-Time Weather Data

Output produced by METARs form (14 October 2019  23:46 UTC)
found at http://weather.rap.ucar.edu/surface/
 
KSAC 142253Z VRB04KT 10SM CLR 27/M01 A2992 RMK AO2 SLP130 T02671011
KSAC 142153Z 27008KT 10SM CLR 27/01 A2991 RMK AO2 SLP129 T02670006
KSAC 142053Z 34005KT 10SM CLR 25/01 A2993 RMK AO2 SLP134 T02500006 58012
KSAC 141953Z 27006KT 10SM CLR 23/02 A2994 RMK AO2 SLP140 T02330017
KSAC 141853Z 00000KT 10SM CLR 22/02 A2995 RMK AO2 SLP142 T02220017
KSAC 141753Z 32003KT 10SM CLR 19/02 A2996 RMK AO2 SLP145 T01890017 10189 20061 51012
KSAC 141704Z 02003KT 9SM FEW003 17/03 A2996 RMK AO2 T01670028
KSAC 141653Z 00000KT 8SM CLR 16/04 A2996 RMK AO2 SLP144 T01560039
KSAC 141553Z 28003KT 8SM CLR 12/05 A2995 RMK AO2 SLP142 T01220050
KSAC 141453Z 00000KT 9SM CLR 07/05 A2993 RMK AO2 SLP133 T00720050 51014
KSAC 141353Z 00000KT 10SM CLR 07/05 A2992 RMK AO2 SLP132 T00670050
KSAC 141253Z AUTO 00000KT 10SM CLR 07/04 A2990 RMK AO2 SLP126 T00670044
KSAC 141153Z AUTO 00000KT 10SM CLR 07/06 A2989 RMK AO2 SLP120 T00720056 10133 20072 53003
KSAC 141053Z AUTO 00000KT 10SM CLR 08/06 A2988 RMK AO2 SLP118 T00780056
KSAC 140953Z AUTO 13003KT 10SM CLR 09/06 A2988 RMK AO2 SLP117 T00940056
KSAC 140853Z AUTO 16003KT 10SM CLR 11/05 A2988 RMK AO2 SLP117 T01060050 51011
KSAC 140753Z AUTO 00000KT 10SM CLR 11/04 A2987 RMK AO2 SLP113 T01060044 402670078
KSAC 140653Z AUTO 00000KT 10SM CLR 12/04 A2986 RMK AO2 SLP110 T01220039
KSAC 140553Z AUTO 20003KT 10SM CLR 14/04 A2984 RMK AO2 SLP105 T01390039 10261 20133 51009
KSAC 140453Z AUTO 22005KT 10SM CLR 15/03 A2984 RMK AO2 SLP103 T01500033
KSAC 140353Z 22004KT 8SM CLR 16/04 A2983 RMK AO2 SLP100 T01610044
KSAC 140345Z 22005KT 3SM HZ CLR 16/05 A2982 RMK AO2 T01560050
KSAC 140332Z 22004KT 1 3/4SM HZ CLR 14/06 A2982 RMK AO2 T01440056
KSAC 140253Z 00000KT 10SM CLR 16/04 A2982 RMK AO2 SLP097 T01560039 53005
KSAC 140153Z 00000KT 10SM CLR 18/04 A2981 RMK AO2 SLP093 T01780039
KSAC 140053Z 00000KT 10SM CLR 23/03 A2980 RMK AO2 SLP092 T02330028
KSAC 132353Z 00000KT 10SM CLR 26/00 A2980 RMK AO2 SLP092 T02610000 10267 20183 56008
KSAC 132253Z VRB03KT 10SM CLR 26/00 A2981 RMK AO2 SLP094 T02610000
KSAC 132153Z VRB04KT 10SM CLR 26/00 A2981 RMK AO2 SLP096 T02610000
KSAC 132053Z 00000KT 10SM CLR 24/01 A2983 RMK AO2 SLP100 T02390011 58017
KSAC 131953Z 28004KT 10SM CLR 22/02 A2985 RMK AO2 SLP109 T02220017
KSAC 131853Z 34004KT 10SM CLR 21/02 A2987 RMK AO2 SLP114 T02110017
KSAC 131753Z 33005KT 8SM CLR 18/03 A2988 RMK AO2 SLP117 T01830028 10183 20078 51008
KSAC 131653Z 34003KT 7SM CLR 16/04 A2988 RMK AO2 SLP117 T01610044
KSAC 131553Z 32004KT 6SM HZ CLR 13/04 A2987 RMK AO2 SLP115 T01330044
KSAC 131453Z 00000KT 6SM HZ CLR 08/04 A2986 RMK AO2 SLP109 T00780039 51004
KSAC 131353Z 00000KT 9SM CLR 08/04 A2985 RMK AO2 SLP109 T00830039
KSAC 131253Z 00000KT 9SM CLR 08/04 A2985 RMK AO2 SLP106 T00830039
KSAC 131153Z AUTO 00000KT 8SM CLR 09/03 A2984 RMK AO2 SLP105 T00940033 10133 20089 55004
KSAC 131053Z AUTO 00000KT 10SM CLR 09/03 A2984 RMK AO2 SLP104 T00940028
KSAC 130953Z AUTO 00000KT 9SM CLR 10/03 A2985 RMK AO2 SLP106 T01000033
KSAC 130853Z AUTO 00000KT 9SM CLR 11/03 A2985 RMK AO2 SLP108 T01110033 56002
KSAC 130753Z AUTO 00000KT 9SM CLR 12/04 A2985 RMK AO2 SLP109 T01170044 402670067
KSAC 130653Z AUTO 00000KT 8SM CLR 11/06 A2985 RMK AO2 SLP108 T01110056
KSAC 130553Z AUTO 00000KT 8SM CLR 12/06 A2986 RMK AO2 SLP110 T01220056 10261 20122 53008
KSAC 130453Z AUTO 00000KT 9SM CLR 13/06 A2984 RMK AO2 SLP105 T01330056
KSAC 130353Z 00000KT 10SM CLR 14/04 A2984 RMK AO2 SLP103 T01390044
KSAC 130253Z 00000KT 10SM CLR 16/03 A2983 RMK AO2 SLP102 T01560033 55003
KSAC 130153Z 00000KT 10SM CLR 18/03 A2983 RMK AO2 SLP101 T01830033
KSAC 130053Z 00000KT 10SM CLR 22/04 A2983 RMK AO2 SLP101 T02220044
KSAC 122353Z 00000KT 10SM CLR 26/M02 A2984 RMK AO2 SLP105 T02611017 10267 20189 56019